Time;durP1;ratioP1;P1;durP2;ratioP2;P2;SDS_P1;SDS_P2;PMS_P1;PMS_P2;Temp;Humidity;BMP_temperature;BMP_pressure;BME280_temperature;BME280_humidity;BME280_pressure;Samples;Min_cycle;Max_cycle;Signal;HPM_P1;HPM_P2
2021/09/28 00:01:41;;;;;;;3.22;1.02;;;15.10;99.90;;;;;;5045296;28;20197;-69
2021/09/28 00:04:07;;;;;;;2.00;1.02;;;15.10;99.90;;;;;;5045452;28;20659;-67
2021/09/28 00:06:33;;;;;;;2.15;1.13;;;15.10;99.90;;;;;;5046036;28;20183;-69
2021/09/28 00:08:58;;;;;;;1.40;0.80;;;15.00;99.90;;;;;;5053789;28;20186;-68
2021/09/28 00:11:24;;;;;;;1.55;0.98;;;15.00;99.90;;;;;;5044851;28;20280;-67
2021/09/28 00:13:49;;;;;;;1.73;1.00;;;15.00;99.90;;;;;;5045402;28;20642;-68
2021/09/28 00:16:15;;;;;;;2.78;0.82;;;15.00;99.90;;;;;;5051084;28;20554;-66
2021/09/28 00:18:41;;;;;;;2.40;0.80;;;15.00;99.90;;;;;;5046302;28;20182;-68
2021/09/28 00:21:06;;;;;;;1.80;0.63;;;15.00;99.90;;;;;;5045490;28;20944;-65
2021/09/28 00:23:32;;;;;;;1.52;0.75;;;15.00;99.90;;;;;;5047812;28;20198;-67
2021/09/28 00:25:57;;;;;;;1.58;0.80;;;14.90;99.90;;;;;;5060351;28;20640;-69
2021/09/28 00:28:24;;;;;;;3.83;1.20;;;14.90;99.90;;;;;;5050231;28;20178;-66
2021/09/28 00:30:50;;;;;;;1.25;0.60;;;14.80;99.90;;;;;;5045513;28;20267;-69
2021/09/28 00:33:16;;;;;;;3.92;0.77;;;14.70;99.90;;;;;;5046650;28;20273;-66
2021/09/28 00:35:42;;;;;;;2.03;1.02;;;14.80;99.90;;;;;;5050867;28;20301;-67
2021/09/28 00:38:07;;;;;;;2.35;0.80;;;14.70;99.90;;;;;;5051269;28;20231;-65
2021/09/28 00:40:33;;;;;;;1.35;0.68;;;14.60;99.90;;;;;;5044991;28;20298;-67
2021/09/28 00:42:59;;;;;;;2.47;0.68;;;14.70;99.90;;;;;;5045330;28;20638;-66
2021/09/28 00:45:25;;;;;;;1.67;0.73;;;14.60;99.90;;;;;;5047980;28;20260;-69
2021/09/28 00:47:51;;;;;;;2.42;0.70;;;14.70;99.90;;;;;;5052913;28;20646;-67
2021/09/28 00:50:17;;;;;;;2.85;0.90;;;14.70;99.90;;;;;;5045232;28;20273;-67
2021/09/28 00:52:43;;;;;;;2.67;0.77;;;14.70;99.90;;;;;;5049558;28;21015;-66
2021/09/28 00:55:08;;;;;;;2.17;0.70;;;14.60;99.90;;;;;;5047078;28;20665;-68
2021/09/28 00:57:35;;;;;;;1.23;0.80;;;14.60;99.90;;;;;;5031653;28;20185;-67
2021/09/28 01:00:04;;;;;;;2.83;0.77;;;14.50;99.90;;;;;;5045333;28;21388;-67
2021/09/28 01:02:30;;;;;;;2.97;0.90;;;14.50;99.90;;;;;;5049782;28;20201;-68
2021/09/28 01:04:55;;;;;;;2.05;0.80;;;14.50;99.90;;;;;;5054746;28;20213;-70
2021/09/28 01:07:21;;;;;;;2.13;0.60;;;14.50;99.90;;;;;;5050511;28;20217;-70
2021/09/28 01:09:47;;;;;;;1.67;0.88;;;14.50;99.90;;;;;;5044884;28;20190;-69
2021/09/28 01:12:13;;;;;;;1.13;0.85;;;14.50;99.90;;;;;;5044105;28;20587;-67
2021/09/28 01:14:42;;;;;;;2.50;0.70;;;14.40;99.90;;;;;;5050716;28;20206;-70
2021/09/28 01:17:15;;;;;;;2.35;0.70;;;14.50;99.90;;;;;;5044879;28;20719;-67
2021/09/28 01:19:41;;;;;;;2.25;0.80;;;14.50;99.90;;;;;;5047629;28;20186;-69
2021/09/28 01:22:07;;;;;;;1.98;0.70;;;14.50;99.90;;;;;;5052068;28;20730;-65
2021/09/28 01:24:34;;;;;;;2.50;0.90;;;14.50;99.90;;;;;;5048012;28;20174;-67
2021/09/28 01:26:59;;;;;;;2.25;0.77;;;14.60;99.90;;;;;;5047991;28;20264;-68
2021/09/28 01:29:25;;;;;;;1.90;0.70;;;14.60;99.90;;;;;;5046941;28;20269;-67
2021/09/28 01:31:50;;;;;;;1.77;0.80;;;14.60;99.90;;;;;;5047750;28;20253;-70
2021/09/28 01:34:16;;;;;;;3.78;0.90;;;14.70;99.90;;;;;;5044226;28;20524;-68
2021/09/28 01:36:42;;;;;;;2.72;1.20;;;14.70;99.90;;;;;;5044640;28;20181;-66
2021/09/28 01:39:08;;;;;;;1.70;1.00;;;14.70;99.90;;;;;;5049370;28;20675;-69
2021/09/28 01:41:34;;;;;;;2.95;0.90;;;14.60;99.90;;;;;;5046504;28;20202;-67
2021/09/28 01:44:10;;;;;;;1.52;1.08;;;14.70;99.90;;;;;;5051389;28;20185;-68
2021/09/28 01:46:38;;;;;;;2.22;0.90;;;14.70;99.90;;;;;;5051072;28;20181;-66
2021/09/28 01:49:05;;;;;;;1.38;0.93;;;14.70;99.90;;;;;;5049745;28;20210;-68
2021/09/28 01:51:30;;;;;;;0.95;0.82;;;14.70;99.90;;;;;;5047310;28;20567;-70
2021/09/28 01:53:56;;;;;;;2.63;1.38;;;14.70;99.90;;;;;;5047542;28;20352;-69
2021/09/28 01:56:26;;;;;;;2.63;1.33;;;14.60;99.90;;;;;;5048050;28;20515;-67
2021/09/28 01:58:53;;;;;;;1.48;1.38;;;14.60;99.90;;;;;;5053362;28;20702;-67
2021/09/28 02:01:19;;;;;;;2.30;1.25;;;14.60;99.90;;;;;;5046917;28;20214;-70
2021/09/28 02:03:45;;;;;;;1.63;1.20;;;14.60;99.90;;;;;;5062275;28;20196;-66
2021/09/28 02:06:12;;;;;;;2.60;1.20;;;14.70;99.90;;;;;;5048130;28;20188;-66
2021/09/28 02:08:38;;;;;;;3.10;1.60;;;14.60;99.90;;;;;;5043931;28;20563;-66
2021/09/28 02:11:04;;;;;;;3.63;1.63;;;14.70;99.90;;;;;;5044260;28;20202;-68
2021/09/28 02:13:29;;;;;;;3.15;1.40;;;14.70;99.90;;;;;;5057307;28;20193;-66
2021/09/28 02:15:55;;;;;;;2.58;1.63;;;14.80;99.90;;;;;;5046343;28;20185;-68
2021/09/28 02:18:21;;;;;;;2.03;1.52;;;14.70;99.90;;;;;;5050379;28;20255;-68
2021/09/28 02:20:47;;;;;;;2.75;1.30;;;14.70;99.90;;;;;;5044785;28;20654;-69
2021/09/28 02:23:12;;;;;;;3.45;1.33;;;14.60;99.90;;;;;;5042925;28;20898;-66
2021/09/28 02:25:38;;;;;;;1.13;1.08;;;14.50;99.90;;;;;;5043510;28;20178;-71
2021/09/28 02:28:04;;;;;;;3.90;2.13;;;14.40;99.90;;;;;;5050671;28;20265;-69
2021/09/28 02:30:30;;;;;;;3.47;1.55;;;14.40;99.90;;;;;;5043064;28;20201;-69
2021/09/28 02:32:56;;;;;;;4.20;1.45;;;14.20;99.90;;;;;;5050272;28;20551;-67
2021/09/28 02:35:22;;;;;;;4.40;1.63;;;14.20;99.90;;;;;;5056836;28;20303;-69
2021/09/28 02:37:48;;;;;;;3.35;1.90;;;14.10;99.90;;;;;;5046113;28;20182;-70
2021/09/28 02:40:14;;;;;;;5.47;2.15;;;14.00;99.90;;;;;;5045826;28;20174;-69
2021/09/28 02:42:40;;;;;;;1.70;1.60;;;14.00;99.90;;;;;;5043026;28;20197;-66
2021/09/28 02:45:07;;;;;;;3.03;1.90;;;14.00;99.90;;;;;;5044094;28;20182;-69
2021/09/28 02:47:32;;;;;;;2.70;1.98;;;14.00;99.90;;;;;;5025211;28;20343;-68
2021/09/28 02:49:58;;;;;;;3.58;2.15;;;;;;;;;;5050894;28;20186;-66
2021/09/28 02:52:25;;;;;;;3.13;2.60;;;;;;;;;;5043781;28;20206;-65
2021/09/28 02:54:51;;;;;;;5.90;2.38;;;;;;;;;;5053409;28;20209;-68
2021/09/28 02:57:17;;;;;;;4.28;2.17;;;14.10;99.90;;;;;;5045367;28;20220;-70
2021/09/28 02:59:43;;;;;;;4.28;2.70;;;13.90;99.90;;;;;;5043250;28;20711;-70
2021/09/28 03:02:09;;;;;;;5.78;2.92;;;13.90;99.90;;;;;;5042849;28;20297;-70
2021/09/28 03:04:34;;;;;;;4.03;2.33;;;13.80;99.90;;;;;;5050589;28;20277;-69
2021/09/28 03:07:00;;;;;;;3.88;2.80;;;13.70;99.90;;;;;;5049238;28;20193;-72
2021/09/28 03:09:26;;;;;;;3.53;3.00;;;13.70;99.90;;;;;;5049987;28;20257;-67
2021/09/28 03:11:52;;;;;;;4.20;3.00;;;13.70;99.90;;;;;;5042500;28;20730;-66
2021/09/28 03:14:18;;;;;;;4.03;3.33;;;13.60;99.90;;;;;;5043676;28;20217;-66
2021/09/28 03:16:44;;;;;;;4.78;2.72;;;13.60;99.90;;;;;;5057019;28;20183;-70
2021/09/28 03:19:09;;;;;;;5.90;3.38;;;13.60;99.90;;;;;;5052510;28;20246;-68
2021/09/28 03:21:35;;;;;;;3.53;3.20;;;13.60;99.90;;;;;;5045152;28;21047;-68
2021/09/28 03:24:00;;;;;;;3.80;2.92;;;13.50;99.90;;;;;;5053071;28;20182;-68
2021/09/28 03:26:26;;;;;;;6.20;3.53;;;13.50;99.90;;;;;;5047910;28;20190;-68
2021/09/28 03:28:52;;;;;;;5.93;3.30;;;13.50;99.90;;;;;;5054485;28;20569;-70
2021/09/28 03:31:18;;;;;;;5.22;2.97;;;13.40;99.90;;;;;;5049917;28;20662;-68
2021/09/28 03:33:44;;;;;;;5.93;3.53;;;13.40;99.90;;;;;;5059225;28;20234;-69
2021/09/28 03:36:09;;;;;;;3.58;2.88;;;13.40;99.90;;;;;;5062055;28;20231;-69
2021/09/28 03:38:35;;;;;;;5.90;3.65;;;13.40;99.90;;;;;;5046990;28;20690;-66
2021/09/28 03:41:01;;;;;;;5.63;3.47;;;13.40;99.90;;;;;;5049393;28;20197;-67
2021/09/28 03:43:26;;;;;;;3.53;3.03;;;13.40;99.90;;;;;;5048308;28;20950;-68
2021/09/28 03:45:54;;;;;;;4.25;3.33;;;13.40;99.90;;;;;;5046640;28;20186;-67
2021/09/28 03:48:21;;;;;;;5.50;3.65;;;13.30;99.90;;;;;;5046205;28;20197;-67
2021/09/28 03:50:47;;;;;;;3.88;3.28;;;13.20;99.90;;;;;;5052970;28;20670;-66
2021/09/28 03:53:12;;;;;;;6.28;3.50;;;13.20;99.90;;;;;;5048046;28;20239;-70
2021/09/28 03:55:38;;;;;;;6.57;3.40;;;13.20;99.90;;;;;;5050607;28;20612;-71
2021/09/28 03:58:04;;;;;;;4.70;3.30;;;13.10;99.90;;;;;;5038941;28;20707;-66
2021/09/28 04:00:30;;;;;;;6.80;3.70;;;13.10;99.90;;;;;;5050503;28;20366;-68
2021/09/28 04:02:56;;;;;;;4.47;3.30;;;13.00;99.90;;;;;;5049643;28;20183;-68
2021/09/28 04:05:22;;;;;;;6.18;3.50;;;12.90;99.90;;;;;;5049387;28;20187;-67
2021/09/28 04:07:47;;;;;;;7.60;3.42;;;12.90;99.90;;;;;;5058492;28;20186;-70
2021/09/28 04:10:13;;;;;;;6.30;3.60;;;12.80;99.90;;;;;;5046191;28;20185;-66
2021/09/28 04:12:39;;;;;;;4.07;3.53;;;12.80;99.90;;;;;;5047879;28;20182;-70
2021/09/28 04:15:07;;;;;;;6.88;3.65;;;12.70;99.90;;;;;;5052757;28;20653;-67
2021/09/28 04:17:32;;;;;;;6.18;4.15;;;12.70;99.90;;;;;;5055669;28;20173;-71
2021/09/28 04:19:58;;;;;;;4.30;3.90;;;12.60;99.90;;;;;;5048642;28;20186;-68
2021/09/28 04:22:24;;;;;;;8.40;3.40;;;12.70;99.90;;;;;;5045053;28;20699;-68
2021/09/28 04:24:50;;;;;;;4.97;3.63;;;12.60;99.90;;;;;;5045738;28;20233;-69
2021/09/28 04:27:17;;;;;;;6.80;4.50;;;12.60;99.90;;;;;;5047715;28;20571;-69
2021/09/28 04:29:43;;;;;;;6.20;4.53;;;12.60;99.90;;;;;;5053888;28;20264;-68
2021/09/28 04:32:08;;;;;;;5.53;4.05;;;12.60;99.90;;;;;;5048934;28;20342;-65
2021/09/28 04:34:35;;;;;;;5.50;4.28;;;12.50;99.90;;;;;;5045590;28;20251;-68
2021/09/28 04:37:00;;;;;;;4.80;4.10;;;12.50;99.90;;;;;;5047015;28;20668;-69
2021/09/28 04:39:26;;;;;;;5.45;4.57;;;12.40;99.90;;;;;;5029668;28;20182;-71
2021/09/28 04:41:51;;;;;;;4.10;3.70;;;12.50;99.90;;;;;;5059519;28;20205;-68
2021/09/28 04:44:17;;;;;;;6.60;4.57;;;12.50;99.90;;;;;;5046380;28;20190;-71
2021/09/28 04:46:43;;;;;;;8.05;4.28;;;12.60;99.90;;;;;;5045493;28;20208;-72
2021/09/28 04:49:08;;;;;;;4.82;4.10;;;12.50;99.90;;;;;;5055216;28;20182;-70
2021/09/28 04:51:34;;;;;;;4.35;3.95;;;12.60;99.90;;;;;;5054831;28;20208;-68
2021/09/28 04:54:00;;;;;;;5.22;3.92;;;12.60;99.90;;;;;;5049427;28;20210;-67
2021/09/28 04:56:26;;;;;;;5.55;3.80;;;12.60;99.90;;;;;;5048366;28;20480;-68
2021/09/28 04:58:51;;;;;;;6.15;4.20;;;12.60;99.90;;;;;;5053850;28;20174;-67
2021/09/28 05:01:17;;;;;;;6.35;4.50;;;12.50;99.90;;;;;;5053488;28;20210;-68
2021/09/28 05:03:43;;;;;;;5.47;3.53;;;12.50;99.90;;;;;;5048595;28;20179;-69
2021/09/28 05:06:08;;;;;;;4.85;3.60;;;12.50;99.90;;;;;;5050990;28;20178;-69
2021/09/28 05:08:34;;;;;;;6.32;4.18;;;12.50;99.90;;;;;;5046132;28;20703;-67
2021/09/28 05:11:00;;;;;;;5.35;4.03;;;12.50;99.90;;;;;;5053442;28;20204;-67
2021/09/28 05:13:27;;;;;;;6.28;4.03;;;12.40;99.90;;;;;;5045242;28;20296;-69
2021/09/28 05:15:52;;;;;;;5.18;4.00;;;12.50;99.90;;;;;;5044780;28;20224;-69
2021/09/28 05:18:18;;;;;;;4.45;3.80;;;12.50;99.90;;;;;;5032978;28;21078;-68
2021/09/28 05:20:44;;;;;;;5.80;4.13;;;12.50;99.90;;;;;;5052836;28;20201;-69
2021/09/28 05:23:09;;;;;;;5.15;3.95;;;12.50;99.90;;;;;;5036172;28;20522;-69
2021/09/28 05:25:35;;;;;;;5.35;4.25;;;12.50;99.90;;;;;;5048265;28;20218;-68
2021/09/28 05:28:01;;;;;;;5.18;3.67;;;12.50;99.90;;;;;;5048873;28;20178;-67
2021/09/28 05:30:27;;;;;;;4.45;3.88;;;12.50;99.90;;;;;;5058954;28;20320;-70
2021/09/28 05:32:52;;;;;;;4.38;3.97;;;12.50;99.90;;;;;;5043779;28;20213;-67
2021/09/28 05:35:19;;;;;;;7.75;4.18;;;12.60;99.90;;;;;;5044472;28;20214;-70
2021/09/28 05:37:44;;;;;;;6.25;4.00;;;12.60;99.90;;;;;;5050251;28;20716;-69
2021/09/28 05:40:10;;;;;;;7.57;4.07;;;12.60;99.90;;;;;;5052036;28;20186;-68
2021/09/28 05:42:36;;;;;;;5.78;4.05;;;12.60;99.90;;;;;;5054273;28;20188;-67
2021/09/28 05:45:03;;;;;;;6.63;3.90;;;12.60;99.90;;;;;;5047240;28;20201;-70
2021/09/28 05:47:28;;;;;;;5.18;3.40;;;12.70;99.90;;;;;;5044531;28;20658;-68
2021/09/28 05:49:54;;;;;;;4.95;3.47;;;12.80;99.90;;;;;;5047856;28;20187;-67
2021/09/28 05:52:20;;;;;;;4.68;3.50;;;12.70;99.90;;;;;;5048450;28;20217;-65
2021/09/28 05:54:48;;;;;;;4.70;3.58;;;12.80;99.90;;;;;;5043378;28;20559;-67
2021/09/28 05:57:21;;;;;;;6.20;4.18;;;12.80;99.90;;;;;;5055503;28;20564;-70
2021/09/28 05:59:47;;;;;;;5.32;4.13;;;12.90;99.90;;;;;;5043890;28;20246;-68
2021/09/28 06:02:14;;;;;;;7.80;3.85;;;12.90;99.90;;;;;;5043153;28;20558;-69
2021/09/28 06:04:40;;;;;;;4.47;4.05;;;12.90;99.90;;;;;;5044042;28;20213;-69
2021/09/28 06:07:07;;;;;;;8.18;3.90;;;12.90;99.90;;;;;;5043760;28;20182;-69
2021/09/28 06:09:35;;;;;;;6.47;3.83;;;12.90;99.90;;;;;;5050469;28;20232;-70
2021/09/28 06:12:03;;;;;;;6.75;3.97;;;12.90;99.90;;;;;;5026826;28;21006;-66
2021/09/28 06:14:28;;;;;;;6.53;3.67;;;12.80;99.90;;;;;;5045436;28;20320;-65
2021/09/28 06:16:54;;;;;;;5.70;4.50;;;12.60;99.90;;;;;;5043923;28;20547;-66
2021/09/28 06:19:19;;;;;;;4.88;3.85;;;12.60;99.90;;;;;;5047469;28;20178;-66
2021/09/28 06:21:45;;;;;;;8.23;4.30;;;12.60;99.90;;;;;;5045529;28;20255;-67
2021/09/28 06:24:11;;;;;;;7.10;4.03;;;12.50;99.90;;;;;;5049221;28;20194;-69
2021/09/28 06:26:36;;;;;;;4.93;3.70;;;12.50;99.90;;;;;;5043531;28;20442;-67
2021/09/28 06:29:02;;;;;;;6.93;4.18;;;12.50;99.90;;;;;;5029362;28;20185;-69
2021/09/28 06:31:27;;;;;;;6.50;4.32;;;12.50;99.90;;;;;;5042830;28;20632;-69
2021/09/28 06:33:53;;;;;;;7.68;4.45;;;12.50;99.90;;;;;;5043747;28;20205;-67
2021/09/28 06:36:18;;;;;;;6.30;4.57;;;12.60;99.90;;;;;;5035604;28;20289;-66
2021/09/28 06:38:44;;;;;;;6.43;4.45;;;12.60;99.90;;;;;;5043444;28;20175;-69
2021/09/28 06:41:10;;;;;;;6.03;4.20;;;12.70;99.90;;;;;;5034547;28;20194;-68
2021/09/28 06:43:36;;;;;;;5.95;4.68;;;12.80;99.90;;;;;;5041235;28;20988;-68
2021/09/28 06:46:02;;;;;;;8.13;4.32;;;12.90;99.90;;;;;;5042050;28;20186;-69
2021/09/28 06:48:27;;;;;;;4.82;4.28;;;12.90;99.90;;;;;;5050195;28;20263;-65
2021/09/28 06:50:53;;;;;;;4.75;3.90;;;13.00;99.90;;;;;;5047397;28;20206;-67
2021/09/28 06:53:19;;;;;;;4.75;3.67;;;13.00;99.90;;;;;;5043743;28;20178;-70
2021/09/28 06:55:44;;;;;;;4.07;3.20;;;13.00;99.90;;;;;;5048494;28;20556;-65
2021/09/28 06:58:10;;;;;;;3.97;3.10;;;13.10;99.90;;;;;;5047449;28;20472;-68
2021/09/28 07:00:36;;;;;;;4.10;2.95;;;13.20;99.90;;;;;;5044254;28;20545;-68
2021/09/28 07:03:06;;;;;;;2.63;2.40;;;13.40;99.90;;;;;;5044431;28;20233;-69
2021/09/28 07:05:32;;;;;;;5.45;2.72;;;13.50;99.90;;;;;;5050949;28;20210;-66
2021/09/28 07:07:58;;;;;;;4.45;2.90;;;13.60;99.90;;;;;;5050809;28;20193;-71
2021/09/28 07:10:24;;;;;;;3.22;2.67;;;13.70;99.90;;;;;;5051044;28;20673;-69
2021/09/28 07:12:49;;;;;;;3.15;2.70;;;13.70;99.90;;;;;;5046106;28;20494;-69
2021/09/28 07:15:16;;;;;;;5.22;3.05;;;13.90;99.90;;;;;;5031348;28;20508;-68
2021/09/28 07:17:44;;;;;;;4.05;2.40;;;14.00;99.90;;;;;;5046710;28;20213;-70
2021/09/28 07:20:10;;;;;;;5.63;2.92;;;14.10;99.90;;;;;;5046913;28;20189;-69
2021/09/28 07:22:36;;;;;;;3.45;3.08;;;14.20;99.90;;;;;;5046047;28;20188;-68
2021/09/28 07:25:02;;;;;;;3.92;2.50;;;14.30;99.90;;;;;;5052227;28;20205;-67
2021/09/28 07:27:28;;;;;;;4.30;2.70;;;14.20;99.90;;;;;;5050561;28;20184;-68
2021/09/28 07:29:55;;;;;;;4.22;2.72;;;14.20;99.90;;;;;;5050392;28;20256;-68
2021/09/28 07:32:21;;;;;;;5.80;3.15;;;14.50;99.90;;;;;;5056392;28;20312;-68
2021/09/28 07:34:47;;;;;;;5.55;3.00;;;14.60;99.90;;;;;;5046337;28;20249;-70
2021/09/28 07:37:13;;;;;;;4.85;2.60;;;14.70;99.90;;;;;;5045993;28;20210;-68
2021/09/28 07:39:39;;;;;;;4.85;2.88;;;14.80;99.90;;;;;;5032536;28;20193;-66
2021/09/28 07:42:05;;;;;;;4.55;3.38;;;14.90;99.90;;;;;;5045451;28;20208;-67
2021/09/28 07:44:31;;;;;;;6.10;3.28;;;15.00;99.90;;;;;;5051841;28;20190;-71
2021/09/28 07:46:58;;;;;;;7.13;3.25;;;15.10;99.90;;;;;;5056791;28;20182;-67
2021/09/28 07:49:24;;;;;;;6.70;2.67;;;15.20;99.90;;;;;;5047928;28;20236;-71
2021/09/28 07:51:50;;;;;;;7.97;3.47;;;15.30;99.90;;;;;;5049420;28;20262;-69
2021/09/28 07:54:15;;;;;;;8.93;3.00;;;15.30;99.90;;;;;;5055860;28;20514;-70
2021/09/28 07:56:42;;;;;;;4.93;3.15;;;15.50;99.90;;;;;;5047680;28;20182;-66
2021/09/28 07:59:08;;;;;;;7.22;2.97;;;15.60;99.90;;;;;;5048858;28;20442;-68
2021/09/28 08:01:35;;;;;;;6.40;3.45;;;15.60;99.90;;;;;;5045258;28;20281;-68
2021/09/28 08:04:02;;;;;;;5.13;2.90;;;15.70;99.90;;;;;;5036079;28;20186;-69
2021/09/28 08:06:28;;;;;;;5.25;2.67;;;15.70;99.90;;;;;;5030398;28;20189;-68
2021/09/28 08:08:53;;;;;;;6.25;3.30;;;15.70;99.90;;;;;;5050157;28;20664;-67
2021/09/28 08:11:19;;;;;;;5.15;2.72;;;15.70;99.90;;;;;;5045256;28;20206;-67
2021/09/28 08:13:44;;;;;;;5.55;3.17;;;15.70;99.90;;;;;;5045524;28;20187;-70
2021/09/28 08:16:10;;;;;;;6.15;3.60;;;15.60;99.90;;;;;;5045008;28;20182;-66
2021/09/28 08:18:36;;;;;;;4.32;2.63;;;15.70;99.90;;;;;;5045662;28;20185;-71
2021/09/28 08:21:02;;;;;;;3.85;2.95;;;15.80;99.90;;;;;;5045125;28;20264;-67
2021/09/28 08:23:28;;;;;;;4.13;2.67;;;16.00;99.90;;;;;;5045362;28;20232;-66
2021/09/28 08:31:05;;;;;;;5.38;3.00;;;16.00;99.90;;;;;;5048846;28;20312;-69
2021/09/28 08:33:32;;;;;;;7.00;3.53;;;16.10;99.90;;;;;;5044188;28;20269;-66
2021/09/28 08:35:58;;;;;;;4.75;2.67;;;16.20;99.90;;;;;;5045163;28;20305;-71
2021/09/28 08:38:27;;;;;;;9.52;3.15;;;16.20;99.90;;;;;;5045949;28;20183;-68
2021/09/28 08:40:52;;;;;;;6.35;2.53;;;16.40;99.90;;;;;;5045940;28;20194;-66
2021/09/28 08:43:18;;;;;;;3.53;2.63;;;16.50;99.90;;;;;;5046407;28;20380;-70
2021/09/28 08:45:44;;;;;;;4.68;2.70;;;16.70;99.90;;;;;;5053202;28;20190;-66
2021/09/28 08:48:13;;;;;;;4.38;2.88;;;16.80;99.90;;;;;;5044534;28;20182;-72
2021/09/28 08:50:41;;;;;;;2.85;2.40;;;16.90;99.90;;;;;;5053401;28;20202;-68
2021/09/28 08:53:09;;;;;;;6.45;2.47;;;17.00;99.90;;;;;;5049809;28;20287;-70
2021/09/28 08:55:36;;;;;;;5.18;2.45;;;17.00;99.90;;;;;;5052059;28;20574;-70
2021/09/28 08:58:17;;;;;;;4.68;2.50;;;17.00;99.90;;;;;;5058798;28;20165;-72
2021/09/28 09:00:44;;;;;;;5.47;2.60;;;17.10;99.90;;;;;;5045838;28;20197;-71
2021/09/28 09:03:28;;;;;;;5.93;2.55;;;17.30;99.90;;;;;;5046278;28;20200;-68
2021/09/28 09:05:56;;;;;;;5.15;2.70;;;17.50;99.90;;;;;;5052267;28;20208;-69
2021/09/28 09:08:25;;;;;;;4.38;2.65;;;17.60;99.90;;;;;;5045270;28;20185;-68
2021/09/28 09:11:03;;;;;;;3.85;2.35;;;17.70;99.90;;;;;;5044828;28;20206;-68
2021/09/28 09:13:35;;;;;;;4.75;2.88;;;17.70;99.90;;;;;;5044346;28;20182;-67
2021/09/28 09:16:01;;;;;;;6.65;2.78;;;17.70;99.90;;;;;;5048668;28;20205;-68
2021/09/28 09:18:27;;;;;;;7.85;3.03;;;17.80;99.90;;;;;;5044770;28;20236;-68
2021/09/28 09:20:57;;;;;;;5.13;2.33;;;17.90;99.90;;;;;;5028655;28;20205;-67
2021/09/28 09:23:32;;;;;;;5.78;2.53;;;18.00;99.90;;;;;;5044720;28;20258;-67
2021/09/28 09:26:18;;;;;;;3.10;2.30;;;18.00;99.90;;;;;;5048543;28;20173;-69
2021/09/28 09:28:50;;;;;;;6.57;2.53;;;17.90;99.90;;;;;;5043770;28;20279;-70
2021/09/28 09:31:32;;;;;;;4.60;2.22;;;18.00;99.90;;;;;;5044315;28;20217;-68
2021/09/28 09:34:15;;;;;;;3.92;2.17;;;18.10;99.90;;;;;;5044692;28;20175;-69
2021/09/28 09:36:42;;;;;;;2.80;2.10;;;18.30;99.90;;;;;;5044615;28;20174;-70
2021/09/28 09:39:10;;;;;;;2.85;2.10;;;18.50;99.90;;;;;;5044476;28;20605;-66
2021/09/28 09:41:39;;;;;;;5.20;2.20;;;18.50;99.90;;;;;;5043611;28;20823;-68
2021/09/28 09:44:11;;;;;;;3.30;2.35;;;18.70;99.90;;;;;;5050495;28;20196;-66
2021/09/28 09:46:46;;;;;;;6.85;2.33;;;18.70;99.90;;;;;;5044192;28;20975;-69
2021/09/28 09:49:27;;;;;;;4.90;2.20;;;18.80;99.90;;;;;;5062088;28;20551;-70
2021/09/28 09:51:55;;;;;;;2.45;1.50;;;18.90;99.90;;;;;;5060426;28;20204;-69
2021/09/28 09:54:38;;;;;;;2.08;1.42;;;19.00;99.90;;;;;;5061561;28;20669;-69
2021/09/28 09:57:07;;;;;;;4.03;2.05;;;18.90;99.90;;;;;;5060869;28;20206;-68
2021/09/28 09:59:33;;;;;;;3.08;2.00;;;19.20;99.90;;;;;;5061332;28;20188;-71
2021/09/28 10:01:59;;;;;;;3.85;2.17;;;19.30;99.90;;;;;;5058759;28;20205;-70
2021/09/28 10:04:24;;;;;;;6.53;2.30;;;19.50;99.90;;;;;;5061012;28;20211;-69
2021/09/28 10:06:52;;;;;;;4.05;2.42;;;19.40;99.90;;;;;;5060778;28;20661;-69
2021/09/28 10:09:20;;;;;;;4.60;1.92;;;19.10;99.90;;;;;;5060835;28;20189;-67
2021/09/28 10:11:54;;;;;;;3.60;1.90;;;18.70;99.90;;;;;;5059661;28;20361;-70
2021/09/28 10:14:35;;;;;;;3.60;2.03;;;18.80;99.90;;;;;;5061174;28;20648;-70
2021/09/28 10:17:21;;;;;;;4.50;1.85;;;18.90;99.90;;;;;;5060620;28;20181;-67
2021/09/28 10:19:56;;;;;;;3.97;1.77;;;19.10;99.90;;;;;;5059555;28;20223;-65
2021/09/28 10:22:52;;;;;;;2.45;1.30;;;19.20;99.90;;;;;;5058022;28;20557;-67
2021/09/28 10:25:21;;;;;;;4.75;1.58;;;19.10;99.90;;;;;;5060795;28;20186;-69
2021/09/28 10:28:09;;;;;;;4.32;2.13;;;19.10;99.90;;;;;;5060490;28;20194;-71
2021/09/28 10:30:35;;;;;;;3.03;1.80;;;19.10;99.90;;;;;;5058328;28;20206;-70
2021/09/28 10:33:06;;;;;;;4.85;1.77;;;19.20;99.90;;;;;;5059843;28;20196;-69
2021/09/28 10:35:35;;;;;;;2.83;1.70;;;19.30;99.90;;;;;;5060132;28;20323;-65
2021/09/28 10:38:05;;;;;;;4.40;1.67;;;19.50;99.90;;;;;;5060047;28;20180;-70
2021/09/28 10:40:36;;;;;;;4.28;1.38;;;19.60;99.90;;;;;;5059713;28;20250;-71
2021/09/28 10:43:09;;;;;;;4.20;1.27;;;19.50;99.90;;;;;;5059644;28;20181;-69
2021/09/28 10:45:38;;;;;;;3.30;1.13;;;19.30;99.90;;;;;;5060029;28;20192;-68
2021/09/28 10:48:18;;;;;;;4.63;1.50;;;19.30;99.90;;;;;;5060062;28;20734;-68
2021/09/28 10:50:45;;;;;;;2.03;1.38;;;19.40;99.90;;;;;;5059843;28;20201;-67
2021/09/28 10:53:20;;;;;;;9.80;1.92;;;19.50;99.90;;;;;;5059100;28;20185;-69
2021/09/28 10:56:05;;;;;;;4.82;1.83;;;19.60;99.90;;;;;;5059904;28;20166;-66
2021/09/28 10:59:14;;;;;;;5.75;1.52;;;19.60;99.90;;;;;;5058792;28;20196;-65
2021/09/28 11:01:43;;;;;;;4.47;1.50;;;19.60;99.90;;;;;;5044262;28;20265;-69
2021/09/28 11:04:16;;;;;;;3.30;1.15;;;19.60;99.90;;;;;;5039771;28;20182;-67
2021/09/28 11:06:45;;;;;;;5.28;1.80;;;19.50;99.90;;;;;;5044655;28;20316;-69
2021/09/28 11:09:15;;;;;;;3.72;1.48;;;19.40;99.90;;;;;;5046178;28;20213;-68
2021/09/28 11:11:41;;;;;;;2.88;1.55;;;19.40;99.90;;;;;;5043462;28;20272;-66
2021/09/28 11:14:10;;;;;;;4.55;1.52;;;19.50;99.90;;;;;;5045527;28;20246;-67
2021/09/28 11:16:52;;;;;;;2.78;1.60;;;19.60;99.90;;;;;;5045418;28;20221;-67
2021/09/28 11:19:18;;;;;;;1.85;1.10;;;19.70;99.90;;;;;;5044377;28;20306;-67
2021/09/28 11:21:46;;;;;;;2.92;1.30;;;19.60;99.90;;;;;;5044973;28;20236;-69
2021/09/28 11:24:13;;;;;;;5.00;1.70;;;19.90;99.90;;;;;;5045916;28;20182;-68
2021/09/28 11:26:42;;;;;;;3.97;1.92;;;20.10;99.90;;;;;;5045344;28;20178;-68
2021/09/28 11:29:12;;;;;;;2.33;1.70;;;20.30;99.90;;;;;;5045355;28;20202;-67
2021/09/28 11:31:40;;;;;;;3.95;1.60;;;20.40;99.90;;;;;;5044328;28;20281;-72
2021/09/28 11:34:06;;;;;;;3.67;1.40;;;20.50;99.90;;;;;;5045504;28;20882;-69
2021/09/28 11:36:37;;;;;;;2.63;1.40;;;20.60;99.90;;;;;;5045613;28;20178;-69
2021/09/28 11:39:06;;;;;;;3.45;1.63;;;20.30;99.90;;;;;;5045632;28;20201;-70
2021/09/28 11:41:36;;;;;;;3.00;1.40;;;20.00;99.90;;;;;;5044370;28;20202;-68
2021/09/28 11:44:03;;;;;;;4.05;1.95;;;19.70;99.90;;;;;;5045635;28;20178;-68
2021/09/28 11:46:31;;;;;;;3.55;1.92;;;19.40;99.90;;;;;;5045145;28;20199;-68
2021/09/28 11:49:07;;;;;;;5.75;1.63;;;19.20;99.90;;;;;;5044954;28;20376;-68
2021/09/28 11:51:36;;;;;;;5.03;1.70;;;19.00;99.90;;;;;;5043946;28;20208;-68
2021/09/28 11:54:09;;;;;;;3.90;1.90;;;19.00;99.90;;;;;;5045216;28;20202;-66
2021/09/28 11:56:37;;;;;;;2.10;1.40;;;19.00;99.90;;;;;;5045024;28;20214;-66
2021/09/28 11:59:03;;;;;;;2.95;1.75;;;18.90;99.90;;;;;;5045518;28;20220;-69
2021/09/28 12:01:29;;;;;;;3.05;2.05;;;19.00;99.90;;;;;;5043676;28;20245;-68
2021/09/28 12:07:00;;;;;;;4.43;2.53;;;19.00;99.90;;;;;;5044656;28;20191;-68
2021/09/28 12:09:50;;;;;;;5.97;2.22;;;18.90;99.90;;;;;;5045033;28;20240;-66
2021/09/28 12:12:22;;;;;;;5.22;2.38;;;18.80;99.90;;;;;;5042556;28;20298;-66
2021/09/28 12:14:51;;;;;;;4.90;2.03;;;18.80;99.90;;;;;;5045168;28;20252;-67
2021/09/28 12:17:21;;;;;;;5.07;2.58;;;18.60;99.90;;;;;;5044709;28;20267;-64
2021/09/28 12:19:50;;;;;;;4.63;2.60;;;18.60;99.90;;;;;;5045181;28;20190;-65
2021/09/28 12:22:50;;;;;;;3.88;2.60;;;18.60;99.90;;;;;;5043792;28;20221;-65
2021/09/28 12:25:36;;;;;;;3.83;2.50;;;18.60;99.90;;;;;;5044183;28;20190;-66
2021/09/28 12:28:07;;;;;;;4.05;2.67;;;18.80;99.90;;;;;;5044831;28;20202;-65
2021/09/28 12:30:58;;;;;;;5.43;2.70;;;18.80;99.90;;;;;;5044655;28;20198;-67
2021/09/28 12:33:25;;;;;;;5.18;3.00;;;18.90;99.90;;;;;;5044345;28;20667;-66
2021/09/28 12:36:01;;;;;;;4.25;3.13;;;18.90;99.90;;;;;;5045231;28;20182;-68
2021/09/28 12:38:27;;;;;;;8.18;3.20;;;18.80;99.90;;;;;;5044793;28;20181;-66
2021/09/28 12:41:06;;;;;;;5.55;2.60;;;19.00;99.90;;;;;;5043515;28;20288;-69
2021/09/28 12:43:31;;;;;;;3.25;2.85;;;19.00;99.90;;;;;;5044040;28;20300;-67
2021/09/28 12:46:00;;;;;;;6.32;3.30;;;19.10;99.90;;;;;;5044948;28;20269;-68
2021/09/28 12:48:34;;;;;;;4.00;2.92;;;19.10;99.90;;;;;;5044445;28;20210;-67
2021/09/28 12:51:05;;;;;;;8.15;2.90;;;19.20;99.90;;;;;;5044492;28;20194;-67
2021/09/28 12:53:32;;;;;;;4.88;2.63;;;19.30;99.90;;;;;;5043348;28;20197;-69
2021/09/28 12:55:58;;;;;;;4.75;2.95;;;19.40;99.90;;;;;;5044460;28;20227;-67
2021/09/28 12:58:25;;;;;;;3.97;2.60;;;19.50;99.90;;;;;;5044380;28;20235;-68
2021/09/28 13:00:52;;;;;;;3.67;2.75;;;19.50;99.90;;;;;;5044236;28;20202;-69